sensor_id;sensor_type;location;lat;lon;timestamp;pressure;altitude;pressure_sealevel;temperature;humidity
78835;BME280;68187;42.682;23.352;2024-02-14T00:00:19;94871.63;;;6.01;72.72
78835;BME280;68187;42.682;23.352;2024-02-14T00:02:46;94870.19;;;6.10;71.97
78835;BME280;68187;42.682;23.352;2024-02-14T00:05:14;94869.38;;;6.10;71.62
78835;BME280;68187;42.682;23.352;2024-02-14T00:07:41;94875.97;;;6.12;71.67
78835;BME280;68187;42.682;23.352;2024-02-14T00:10:10;94879.50;;;6.01;71.93
78835;BME280;68187;42.682;23.352;2024-02-14T00:12:37;94871.81;;;5.95;72.25
78835;BME280;68187;42.682;23.352;2024-02-14T00:15:05;94885.13;;;5.93;73.15
78835;BME280;68187;42.682;23.352;2024-02-14T00:17:33;94891.00;;;6.00;72.37
78835;BME280;68187;42.682;23.352;2024-02-14T00:20:00;94893.44;;;6.07;72.41
78835;BME280;68187;42.682;23.352;2024-02-14T00:22:28;94893.34;;;5.97;72.04
78835;BME280;68187;42.682;23.352;2024-02-14T00:24:55;94890.00;;;6.01;72.53
78835;BME280;68187;42.682;23.352;2024-02-14T00:27:23;94884.75;;;6.01;72.46
78835;BME280;68187;42.682;23.352;2024-02-14T00:29:52;94893.16;;;6.03;72.36
78835;BME280;68187;42.682;23.352;2024-02-14T00:32:19;94888.63;;;5.99;72.52
78835;BME280;68187;42.682;23.352;2024-02-14T00:34:46;94884.19;;;5.99;72.12
78835;BME280;68187;42.682;23.352;2024-02-14T00:37:14;94896.81;;;6.02;72.02
78835;BME280;68187;42.682;23.352;2024-02-14T00:39:41;94888.63;;;5.99;71.33
78835;BME280;68187;42.682;23.352;2024-02-14T00:42:08;94898.50;;;5.92;72.25
78835;BME280;68187;42.682;23.352;2024-02-14T00:44:37;94898.25;;;5.93;72.26
78835;BME280;68187;42.682;23.352;2024-02-14T00:47:03;94902.72;;;5.93;72.41
78835;BME280;68187;42.682;23.352;2024-02-14T00:49:34;94898.56;;;5.97;72.46
78835;BME280;68187;42.682;23.352;2024-02-14T00:52:01;94897.94;;;5.90;72.24
78835;BME280;68187;42.682;23.352;2024-02-14T00:54:28;94891.66;;;5.91;72.17
78835;BME280;68187;42.682;23.352;2024-02-14T00:56:55;94900.41;;;5.96;72.13
78835;BME280;68187;42.682;23.352;2024-02-14T00:59:22;94897.78;;;5.96;72.17
78835;BME280;68187;42.682;23.352;2024-02-14T01:01:51;94905.63;;;5.96;72.46
78835;BME280;68187;42.682;23.352;2024-02-14T01:04:18;94900.56;;;5.90;72.44
78835;BME280;68187;42.682;23.352;2024-02-14T01:06:45;94909.28;;;5.95;72.30
78835;BME280;68187;42.682;23.352;2024-02-14T01:09:13;94893.56;;;5.95;71.95
78835;BME280;68187;42.682;23.352;2024-02-14T01:11:40;94901.75;;;5.99;71.48
78835;BME280;68187;42.682;23.352;2024-02-14T01:14:07;94906.66;;;5.95;71.23
78835;BME280;68187;42.682;23.352;2024-02-14T01:16:42;94904.00;;;5.90;71.87
78835;BME280;68187;42.682;23.352;2024-02-14T01:19:10;94909.78;;;5.92;72.02
78835;BME280;68187;42.682;23.352;2024-02-14T01:21:37;94905.63;;;5.96;71.93
78835;BME280;68187;42.682;23.352;2024-02-14T01:24:05;94908.34;;;5.85;72.60
78835;BME280;68187;42.682;23.352;2024-02-14T01:26:34;94902.84;;;5.86;72.15
78835;BME280;68187;42.682;23.352;2024-02-14T01:29:01;94893.56;;;5.95;71.82
78835;BME280;68187;42.682;23.352;2024-02-14T01:31:28;94899.53;;;5.91;71.88
78835;BME280;68187;42.682;23.352;2024-02-14T01:33:55;94904.47;;;5.87;72.22
78835;BME280;68187;42.682;23.352;2024-02-14T01:36:24;94896.75;;;5.97;71.75
78835;BME280;68187;42.682;23.352;2024-02-14T01:38:51;94899.13;;;5.99;71.24
78835;BME280;68187;42.682;23.352;2024-02-14T01:41:18;94892.81;;;6.00;71.39
78835;BME280;68187;42.682;23.352;2024-02-14T01:43:44;94892.06;;;5.99;71.48
78835;BME280;68187;42.682;23.352;2024-02-14T01:46:11;94899.59;;;5.96;71.49
78835;BME280;68187;42.682;23.352;2024-02-14T01:48:38;94889.84;;;5.91;71.52
78835;BME280;68187;42.682;23.352;2024-02-14T01:51:08;94901.28;;;6.02;71.33
78835;BME280;68187;42.682;23.352;2024-02-14T01:53:38;94895.94;;;5.97;70.94
78835;BME280;68187;42.682;23.352;2024-02-14T01:56:05;94891.72;;;5.96;71.38
78835;BME280;68187;42.682;23.352;2024-02-14T01:58:33;94901.19;;;5.97;71.22
78835;BME280;68187;42.682;23.352;2024-02-14T02:01:01;94897.06;;;6.01;71.28
78835;BME280;68187;42.682;23.352;2024-02-14T02:03:28;94903.28;;;5.95;71.48
78835;BME280;68187;42.682;23.352;2024-02-14T02:05:58;94903.03;;;5.96;70.85
78835;BME280;68187;42.682;23.352;2024-02-14T02:08:25;94909.78;;;5.92;71.14
78835;BME280;68187;42.682;23.352;2024-02-14T02:10:54;94901.84;;;5.87;71.71
78835;BME280;68187;42.682;23.352;2024-02-14T02:13:21;94913.75;;;5.95;71.08
78835;BME280;68187;42.682;23.352;2024-02-14T02:15:48;94911.06;;;5.90;71.44
78835;BME280;68187;42.682;23.352;2024-02-14T02:18:15;94913.78;;;6.00;70.89
78835;BME280;68187;42.682;23.352;2024-02-14T02:20:42;94908.44;;;5.90;70.72
78835;BME280;68187;42.682;23.352;2024-02-14T02:23:11;94924.63;;;5.87;71.22
78835;BME280;68187;42.682;23.352;2024-02-14T02:25:40;94920.66;;;5.84;71.59
78835;BME280;68187;42.682;23.352;2024-02-14T02:28:07;94922.09;;;5.92;71.08
78835;BME280;68187;42.682;23.352;2024-02-14T02:30:34;94915.97;;;5.86;70.98
78835;BME280;68187;42.682;23.352;2024-02-14T02:33:02;94915.97;;;5.86;70.91
78835;BME280;68187;42.682;23.352;2024-02-14T02:35:29;94925.44;;;5.87;70.91
78835;BME280;68187;42.682;23.352;2024-02-14T02:37:56;94923.91;;;5.74;71.01
78835;BME280;68187;42.682;23.352;2024-02-14T02:40:25;94920.06;;;5.82;71.44
78835;BME280;68187;42.682;23.352;2024-02-14T02:42:52;94921.13;;;5.81;70.80
78835;BME280;68187;42.682;23.352;2024-02-14T02:45:19;94931.22;;;5.89;70.71
78835;BME280;68187;42.682;23.352;2024-02-14T02:47:46;94933.59;;;5.91;70.45
78835;BME280;68187;42.682;23.352;2024-02-14T02:50:13;94937.56;;;5.93;70.74
78835;BME280;68187;42.682;23.352;2024-02-14T02:52:40;94933.28;;;5.87;70.57
78835;BME280;68187;42.682;23.352;2024-02-14T02:55:07;94934.09;;;5.88;70.59
78835;BME280;68187;42.682;23.352;2024-02-14T02:57:37;94938.53;;;5.87;70.82
78835;BME280;68187;42.682;23.352;2024-02-14T03:00:06;94932.38;;;5.82;70.08
78835;BME280;68187;42.682;23.352;2024-02-14T03:02:35;94940.25;;;5.82;70.85
78835;BME280;68187;42.682;23.352;2024-02-14T03:05:04;94948.00;;;5.88;70.46
78835;BME280;68187;42.682;23.352;2024-02-14T03:07:35;94954.72;;;5.84;70.26
78835;BME280;68187;42.682;23.352;2024-02-14T03:10:03;94941.75;;;5.77;70.82
78835;BME280;68187;42.682;23.352;2024-02-14T03:12:30;94954.72;;;5.84;70.20
78835;BME280;68187;42.682;23.352;2024-02-14T03:14:59;94964.06;;;5.80;70.67
78835;BME280;68187;42.682;23.352;2024-02-14T03:17:27;94958.69;;;5.87;70.31
78835;BME280;68187;42.682;23.352;2024-02-14T03:19:54;94970.44;;;5.84;70.23
78835;BME280;68187;42.682;23.352;2024-02-14T03:22:22;94967.66;;;5.74;70.34
78835;BME280;68187;42.682;23.352;2024-02-14T03:24:48;94971.94;;;5.80;70.04
78835;BME280;68187;42.682;23.352;2024-02-14T03:27:15;94976.72;;;5.83;70.06
78835;BME280;68187;42.682;23.352;2024-02-14T03:29:44;94973.94;;;5.90;69.79
78835;BME280;68187;42.682;23.352;2024-02-14T03:32:14;94983.53;;;5.84;70.21
78835;BME280;68187;42.682;23.352;2024-02-14T03:34:41;94982.28;;;5.87;69.91
78835;BME280;68187;42.682;23.352;2024-02-14T03:37:08;94995.44;;;5.75;70.78
78835;BME280;68187;42.682;23.352;2024-02-14T03:39:34;94989.00;;;5.83;70.43
78835;BME280;68187;42.682;23.352;2024-02-14T03:42:02;94988.56;;;5.86;70.05
78835;BME280;68187;42.682;23.352;2024-02-14T03:44:32;94984.94;;;5.75;69.77
78835;BME280;68187;42.682;23.352;2024-02-14T03:46:59;94993.84;;;5.74;69.69
78835;BME280;68187;42.682;23.352;2024-02-14T03:49:28;94997.00;;;5.88;69.70
78835;BME280;68187;42.682;23.352;2024-02-14T03:51:55;95005.75;;;5.82;69.16
78835;BME280;68187;42.682;23.352;2024-02-14T03:54:22;95000.19;;;5.78;69.43
78835;BME280;68187;42.682;23.352;2024-02-14T03:56:50;94991.53;;;5.77;69.48
78835;BME280;68187;42.682;23.352;2024-02-14T03:59:17;94993.16;;;5.78;69.40
78835;BME280;68187;42.682;23.352;2024-02-14T04:01:49;94992.09;;;5.79;69.57
78835;BME280;68187;42.682;23.352;2024-02-14T04:04:18;94990.69;;;5.72;69.48
78835;BME280;68187;42.682;23.352;2024-02-14T04:06:47;94997.84;;;5.76;69.27
78835;BME280;68187;42.682;23.352;2024-02-14T04:09:14;94997.75;;;5.71;69.53
78835;BME280;68187;42.682;23.352;2024-02-14T04:11:41;94998.53;;;5.72;69.36
78835;BME280;68187;42.682;23.352;2024-02-14T04:14:07;95021.38;;;5.60;69.59
78835;BME280;68187;42.682;23.352;2024-02-14T04:16:34;95014.06;;;5.62;69.40
78835;BME280;68187;42.682;23.352;2024-02-14T04:19:02;95014.88;;;5.62;69.77
78835;BME280;68187;42.682;23.352;2024-02-14T04:21:29;95022.50;;;5.64;69.98
78835;BME280;68187;42.682;23.352;2024-02-14T04:23:57;95026.88;;;5.58;70.10
78835;BME280;68187;42.682;23.352;2024-02-14T04:26:24;95021.94;;;5.62;70.05
78835;BME280;68187;42.682;23.352;2024-02-14T04:28:52;95028.53;;;5.64;69.90
78835;BME280;68187;42.682;23.352;2024-02-14T04:31:19;95031.00;;;5.71;69.40
78835;BME280;68187;42.682;23.352;2024-02-14T04:33:46;95031.25;;;5.69;69.61
78835;BME280;68187;42.682;23.352;2024-02-14T04:36:17;95022.03;;;5.67;69.97
78835;BME280;68187;42.682;23.352;2024-02-14T04:38:44;95028.44;;;5.59;70.28
78835;BME280;68187;42.682;23.352;2024-02-14T04:41:12;95037.66;;;5.62;70.26
78835;BME280;68187;42.682;23.352;2024-02-14T04:43:39;95039.81;;;5.65;70.67
78835;BME280;68187;42.682;23.352;2024-02-14T04:46:06;95035.03;;;5.62;69.91
78835;BME280;68187;42.682;23.352;2024-02-14T04:48:34;95045.28;;;5.63;70.13
78835;BME280;68187;42.682;23.352;2024-02-14T04:51:01;95035.84;;;5.62;70.01
78835;BME280;68187;42.682;23.352;2024-02-14T04:53:28;95044.50;;;5.63;70.37
78835;BME280;68187;42.682;23.352;2024-02-14T04:55:55;95048.75;;;5.52;70.48
78835;BME280;68187;42.682;23.352;2024-02-14T04:58:23;95051.00;;;5.60;70.55
78835;BME280;68187;42.682;23.352;2024-02-14T05:00:52;95052.91;;;5.65;70.20
78835;BME280;68187;42.682;23.352;2024-02-14T05:03:20;95051.50;;;5.74;70.10
78835;BME280;68187;42.682;23.352;2024-02-14T05:05:49;95063.00;;;5.73;70.18
78835;BME280;68187;42.682;23.352;2024-02-14T05:08:16;95061.88;;;5.69;69.76
78835;BME280;68187;42.682;23.352;2024-02-14T05:10:43;95062.44;;;5.71;70.21
78835;BME280;68187;42.682;23.352;2024-02-14T05:13:11;95065.06;;;5.71;69.95
78835;BME280;68187;42.682;23.352;2024-02-14T05:15:40;95083.50;;;5.76;70.04
78835;BME280;68187;42.682;23.352;2024-02-14T05:18:07;95077.91;;;5.72;70.07
78835;BME280;68187;42.682;23.352;2024-02-14T05:20:35;95083.13;;;5.56;70.28
78835;BME280;68187;42.682;23.352;2024-02-14T05:23:04;95082.66;;;5.59;70.96
78835;BME280;68187;42.682;23.352;2024-02-14T05:25:30;95098.00;;;5.39;71.18
78835;BME280;68187;42.682;23.352;2024-02-14T05:27:58;95092.63;;;5.45;70.82
78835;BME280;68187;42.682;23.352;2024-02-14T05:30:26;95095.03;;;5.47;70.29
78835;BME280;68187;42.682;23.352;2024-02-14T05:32:55;95099.00;;;5.49;70.88
78835;BME280;68187;42.682;23.352;2024-02-14T05:35:22;95099.59;;;5.40;71.33
78835;BME280;68187;42.682;23.352;2024-02-14T05:37:49;95104.56;;;5.53;70.81
78835;BME280;68187;42.682;23.352;2024-02-14T05:40:16;95101.50;;;5.44;70.76
78835;BME280;68187;42.682;23.352;2024-02-14T05:42:43;95113.34;;;5.47;70.72
78835;BME280;68187;42.682;23.352;2024-02-14T05:45:11;95118.91;;;5.50;70.58
78835;BME280;68187;42.682;23.352;2024-02-14T05:47:38;95122.09;;;5.52;70.57
78835;BME280;68187;42.682;23.352;2024-02-14T05:50:07;95121.88;;;5.54;70.44
78835;BME280;68187;42.682;23.352;2024-02-14T05:52:37;95131.31;;;5.55;70.05
78835;BME280;68187;42.682;23.352;2024-02-14T05:55:04;95130.94;;;5.63;69.73
78835;BME280;68187;42.682;23.352;2024-02-14T05:57:32;95135.16;;;5.64;69.63
78835;BME280;68187;42.682;23.352;2024-02-14T05:59:58;95132.78;;;5.62;69.35
78835;BME280;68187;42.682;23.352;2024-02-14T06:02:25;95137.59;;;5.54;69.46
78835;BME280;68187;42.682;23.352;2024-02-14T06:04:52;95153.91;;;5.44;69.59
78835;BME280;68187;42.682;23.352;2024-02-14T06:07:20;95155.13;;;5.53;69.15
78835;BME280;68187;42.682;23.352;2024-02-14T06:09:47;95155.56;;;5.50;69.35
78835;BME280;68187;42.682;23.352;2024-02-14T06:12:14;95159.94;;;5.45;69.72
78835;BME280;68187;42.682;23.352;2024-02-14T06:14:41;95151.53;;;5.43;69.43
78835;BME280;68187;42.682;23.352;2024-02-14T06:17:08;95162.63;;;5.50;69.32
78835;BME280;68187;42.682;23.352;2024-02-14T06:19:35;95157.06;;;5.46;69.18
78835;BME280;68187;42.682;23.352;2024-02-14T06:22:04;95160.13;;;5.55;68.43
78835;BME280;68187;42.682;23.352;2024-02-14T06:24:32;95169.19;;;5.64;67.67
78835;BME280;68187;42.682;23.352;2024-02-14T06:26:59;95173.53;;;5.70;68.11
78835;BME280;68187;42.682;23.352;2024-02-14T06:29:26;95176.84;;;5.65;67.58
78835;BME280;68187;42.682;23.352;2024-02-14T06:31:53;95176.84;;;5.65;67.91
78835;BME280;68187;42.682;23.352;2024-02-14T06:34:20;95178.44;;;5.66;67.31
78835;BME280;68187;42.682;23.352;2024-02-14T06:36:47;95178.88;;;5.63;67.54
78835;BME280;68187;42.682;23.352;2024-02-14T06:39:14;95185.41;;;5.61;67.19
78835;BME280;68187;42.682;23.352;2024-02-14T06:41:42;95189.28;;;5.58;67.13
78835;BME280;68187;42.682;23.352;2024-02-14T06:44:11;95180.88;;;5.56;67.73
78835;BME280;68187;42.682;23.352;2024-02-14T06:46:37;95191.66;;;5.60;67.30
78835;BME280;68187;42.682;23.352;2024-02-14T06:49:04;95190.44;;;5.51;67.90
78835;BME280;68187;42.682;23.352;2024-02-14T06:51:31;95184.88;;;5.47;67.45
78835;BME280;68187;42.682;23.352;2024-02-14T06:53:58;95188.25;;;5.48;67.62
78835;BME280;68187;42.682;23.352;2024-02-14T06:56:27;95198.16;;;5.57;68.38
78835;BME280;68187;42.682;23.352;2024-02-14T06:58:57;95199.78;;;5.47;67.59
78835;BME280;68187;42.682;23.352;2024-02-14T07:01:25;95203.09;;;5.42;66.99
78835;BME280;68187;42.682;23.352;2024-02-14T07:03:52;95195.00;;;5.44;66.39
78835;BME280;68187;42.682;23.352;2024-02-14T07:06:19;95211.88;;;5.25;67.44
78835;BME280;68187;42.682;23.352;2024-02-14T07:08:46;95208.91;;;5.33;67.21
78835;BME280;68187;42.682;23.352;2024-02-14T07:11:14;95209.72;;;5.33;67.28
78835;BME280;68187;42.682;23.352;2024-02-14T07:13:42;95213.81;;;5.29;67.38
78835;BME280;68187;42.682;23.352;2024-02-14T07:16:10;95213.91;;;5.34;67.37
78835;BME280;68187;42.682;23.352;2024-02-14T07:18:37;95223.13;;;5.37;67.42
78835;BME280;68187;42.682;23.352;2024-02-14T07:21:04;95222.56;;;5.23;67.29
78835;BME280;68187;42.682;23.352;2024-02-14T07:23:32;95221.00;;;5.34;67.37
78835;BME280;68187;42.682;23.352;2024-02-14T07:25:59;95228.91;;;5.50;66.88
78835;BME280;68187;42.682;23.352;2024-02-14T07:28:27;95221.94;;;5.67;66.24
78835;BME280;68187;42.682;23.352;2024-02-14T07:30:53;95224.78;;;5.66;66.03
78835;BME280;68187;42.682;23.352;2024-02-14T07:33:22;95230.13;;;5.71;65.35
78835;BME280;68187;42.682;23.352;2024-02-14T07:35:49;95228.06;;;5.73;65.51
78835;BME280;68187;42.682;23.352;2024-02-14T07:38:16;95237.16;;;5.82;66.04
78835;BME280;68187;42.682;23.352;2024-02-14T07:40:43;95230.66;;;5.96;65.93
78835;BME280;68187;42.682;23.352;2024-02-14T07:43:10;95236.59;;;5.80;65.42
78835;BME280;68187;42.682;23.352;2024-02-14T07:45:37;95232.50;;;5.84;64.71
78835;BME280;68187;42.682;23.352;2024-02-14T07:48:05;95238.22;;;5.81;64.50
78835;BME280;68187;42.682;23.352;2024-02-14T07:50:34;95246.06;;;5.81;64.65
78835;BME280;68187;42.682;23.352;2024-02-14T07:53:02;95242.53;;;5.87;64.59
78835;BME280;68187;42.682;23.352;2024-02-14T07:55:29;95233.88;;;5.75;64.78
78835;BME280;68187;42.682;23.352;2024-02-14T07:57:56;95252.03;;;5.53;65.52
78835;BME280;68187;42.682;23.352;2024-02-14T08:00:25;95249.56;;;5.47;65.53
78835;BME280;68187;42.682;23.352;2024-02-14T08:02:52;95252.06;;;5.30;66.06
78835;BME280;68187;42.682;23.352;2024-02-14T08:05:19;95240.78;;;5.41;66.47
78835;BME280;68187;42.682;23.352;2024-02-14T08:07:47;95249.00;;;5.33;66.37
78835;BME280;68187;42.682;23.352;2024-02-14T08:10:14;95250.94;;;5.15;66.38
78835;BME280;68187;42.682;23.352;2024-02-14T08:12:41;95250.81;;;5.10;66.73
78835;BME280;68187;42.682;23.352;2024-02-14T08:15:09;95251.72;;;5.15;66.90
78835;BME280;68187;42.682;23.352;2024-02-14T08:17:36;95261.72;;;5.30;65.91
78835;BME280;68187;42.682;23.352;2024-02-14T08:20:04;95262.88;;;5.11;66.14
78835;BME280;68187;42.682;23.352;2024-02-14T08:22:31;95263.66;;;5.11;66.51
78835;BME280;68187;42.682;23.352;2024-02-14T08:25:00;95269.13;;;5.21;66.48
78835;BME280;68187;42.682;23.352;2024-02-14T08:27:27;95262.66;;;5.12;65.93
78835;BME280;68187;42.682;23.352;2024-02-14T08:29:53;95278.03;;;5.20;66.33
78835;BME280;68187;42.682;23.352;2024-02-14T08:32:20;95274.59;;;5.20;66.23
78835;BME280;68187;42.682;23.352;2024-02-14T08:34:48;95270.25;;;5.14;65.89
78835;BME280;68187;42.682;23.352;2024-02-14T08:37:15;95279.28;;;5.18;65.53
78835;BME280;68187;42.682;23.352;2024-02-14T08:39:42;95282.78;;;5.23;65.09
78835;BME280;68187;42.682;23.352;2024-02-14T08:42:11;95281.78;;;5.13;65.97
78835;BME280;68187;42.682;23.352;2024-02-14T08:44:38;95282.69;;;5.30;65.16
78835;BME280;68187;42.682;23.352;2024-02-14T08:47:06;95293.03;;;5.36;65.22
78835;BME280;68187;42.682;23.352;2024-02-14T08:49:34;95291.09;;;5.32;65.12
78835;BME280;68187;42.682;23.352;2024-02-14T08:52:01;95297.13;;;5.21;64.91
78835;BME280;68187;42.682;23.352;2024-02-14T08:54:29;95294.88;;;5.24;65.58
78835;BME280;68187;42.682;23.352;2024-02-14T08:56:58;95296.44;;;5.25;65.00
78835;BME280;68187;42.682;23.352;2024-02-14T08:59:26;95299.31;;;5.24;65.07
78835;BME280;68187;42.682;23.352;2024-02-14T09:01:53;95300.44;;;5.28;65.19
78835;BME280;68187;42.682;23.352;2024-02-14T09:04:20;95307.41;;;5.22;65.64
78835;BME280;68187;42.682;23.352;2024-02-14T09:06:47;95298.94;;;5.32;64.32
78835;BME280;68187;42.682;23.352;2024-02-14T09:09:14;95307.63;;;5.32;65.04
78835;BME280;68187;42.682;23.352;2024-02-14T09:11:41;95307.41;;;5.34;64.48
78835;BME280;68187;42.682;23.352;2024-02-14T09:14:08;95299.44;;;5.40;65.03
78835;BME280;68187;42.682;23.352;2024-02-14T09:16:37;95307.38;;;5.45;64.32
78835;BME280;68187;42.682;23.352;2024-02-14T09:19:04;95305.81;;;5.44;64.98
78835;BME280;68187;42.682;23.352;2024-02-14T09:21:33;95317.28;;;5.55;64.09
78835;BME280;68187;42.682;23.352;2024-02-14T09:24:01;95325.72;;;5.45;64.87
78835;BME280;68187;42.682;23.352;2024-02-14T09:26:28;95313.91;;;5.43;64.75
78835;BME280;68187;42.682;23.352;2024-02-14T09:28:55;95308.53;;;5.26;64.89
78835;BME280;68187;42.682;23.352;2024-02-14T09:31:22;95322.53;;;5.32;64.73
78835;BME280;68187;42.682;23.352;2024-02-14T09:33:50;95321.94;;;5.30;64.96
78835;BME280;68187;42.682;23.352;2024-02-14T09:36:22;95334.16;;;5.24;65.49
78835;BME280;68187;42.682;23.352;2024-02-14T09:38:49;95317.53;;;5.30;65.25
78835;BME280;68187;42.682;23.352;2024-02-14T09:41:22;95321.38;;;5.28;65.17
78835;BME280;68187;42.682;23.352;2024-02-14T09:43:49;95312.97;;;5.37;65.49
78835;BME280;68187;42.682;23.352;2024-02-14T09:46:16;95328.69;;;5.49;65.71
78835;BME280;68187;42.682;23.352;2024-02-14T09:48:43;95327.44;;;5.51;63.89
78835;BME280;68187;42.682;23.352;2024-02-14T09:51:12;95317.09;;;5.45;64.71
78835;BME280;68187;42.682;23.352;2024-02-14T09:53:40;95308.88;;;5.30;64.77
78835;BME280;68187;42.682;23.352;2024-02-14T09:56:09;95307.16;;;5.47;64.67
78835;BME280;68187;42.682;23.352;2024-02-14T09:58:37;95314.47;;;5.56;64.71
78835;BME280;68187;42.682;23.352;2024-02-14T10:01:04;95310.34;;;5.60;64.33
78835;BME280;68187;42.682;23.352;2024-02-14T10:03:32;95300.00;;;5.54;64.24
78835;BME280;68187;42.682;23.352;2024-02-14T10:05:59;95316.72;;;5.53;64.60
78835;BME280;68187;42.682;23.352;2024-02-14T10:08:27;95310.22;;;5.67;64.71
78835;BME280;68187;42.682;23.352;2024-02-14T10:10:56;95314.66;;;5.66;63.41
78835;BME280;68187;42.682;23.352;2024-02-14T10:13:26;95317.84;;;5.57;63.72
78835;BME280;68187;42.682;23.352;2024-02-14T10:15:53;95316.41;;;5.49;63.66
78835;BME280;68187;42.682;23.352;2024-02-14T10:18:20;95298.88;;;5.27;64.43
78835;BME280;68187;42.682;23.352;2024-02-14T10:20:55;95301.25;;;5.28;64.40
78835;BME280;68187;42.682;23.352;2024-02-14T10:23:22;95316.50;;;5.31;64.49
78835;BME280;68187;42.682;23.352;2024-02-14T10:25:52;95309.34;;;5.38;64.39
78835;BME280;68187;42.682;23.352;2024-02-14T10:28:21;95311.38;;;5.48;63.58
78835;BME280;68187;42.682;23.352;2024-02-14T10:30:49;95310.25;;;5.44;63.49
78835;BME280;68187;42.682;23.352;2024-02-14T10:33:16;95310.00;;;5.45;62.99
78835;BME280;68187;42.682;23.352;2024-02-14T10:35:43;95318.53;;;5.52;62.58
78835;BME280;68187;42.682;23.352;2024-02-14T10:38:11;95313.78;;;5.61;62.83
78835;BME280;68187;42.682;23.352;2024-02-14T10:40:38;95310.69;;;5.64;62.40
78835;BME280;68187;42.682;23.352;2024-02-14T10:43:07;95310.69;;;5.64;62.27
78835;BME280;68187;42.682;23.352;2024-02-14T10:45:35;95306.13;;;5.71;61.67
78835;BME280;68187;42.682;23.352;2024-02-14T10:48:04;95305.22;;;5.65;61.65
78835;BME280;68187;42.682;23.352;2024-02-14T10:50:33;95313.41;;;5.69;61.59
78835;BME280;68187;42.682;23.352;2024-02-14T10:53:04;95313.19;;;5.70;61.95
78835;BME280;68187;42.682;23.352;2024-02-14T10:55:33;95296.31;;;5.78;62.29
78835;BME280;68187;42.682;23.352;2024-02-14T10:58:01;95306.38;;;5.69;61.14
78835;BME280;68187;42.682;23.352;2024-02-14T11:00:31;95317.84;;;5.57;61.49
78835;BME280;68187;42.682;23.352;2024-02-14T11:02:59;95314.34;;;5.63;61.71
78835;BME280;68187;42.682;23.352;2024-02-14T11:05:27;95312.06;;;5.66;61.64
78835;BME280;68187;42.682;23.352;2024-02-14T11:07:54;95311.84;;;5.45;62.49
78835;BME280;68187;42.682;23.352;2024-02-14T11:10:22;95313.88;;;5.54;62.13
78835;BME280;68187;42.682;23.352;2024-02-14T11:12:50;95320.25;;;5.70;61.83
78835;BME280;68187;42.682;23.352;2024-02-14T11:15:18;95321.16;;;5.64;61.62
78835;BME280;68187;42.682;23.352;2024-02-14T11:17:48;95316.41;;;5.61;61.92
78835;BME280;68187;42.682;23.352;2024-02-14T11:20:18;95312.72;;;5.62;62.88
78835;BME280;68187;42.682;23.352;2024-02-14T11:22:55;95312.63;;;5.68;62.56
78835;BME280;68187;42.682;23.352;2024-02-14T11:25:28;95316.84;;;5.81;62.43
78835;BME280;68187;42.682;23.352;2024-02-14T11:27:55;95301.31;;;5.79;61.44
78835;BME280;68187;42.682;23.352;2024-02-14T11:30:30;95312.50;;;5.75;60.88
78835;BME280;68187;42.682;23.352;2024-02-14T11:33:12;95312.84;;;5.78;60.89
78835;BME280;68187;42.682;23.352;2024-02-14T11:35:40;95313.16;;;5.82;61.71
78835;BME280;68187;42.682;23.352;2024-02-14T11:38:08;95307.69;;;5.95;61.11
78835;BME280;68187;42.682;23.352;2024-02-14T11:40:35;95311.34;;;6.06;61.72
78835;BME280;68187;42.682;23.352;2024-02-14T11:43:04;95310.13;;;5.85;60.77
78835;BME280;68187;42.682;23.352;2024-02-14T11:45:31;95313.19;;;5.94;60.84
78835;BME280;68187;42.682;23.352;2024-02-14T11:47:58;95304.31;;;5.95;60.95
78835;BME280;68187;42.682;23.352;2024-02-14T11:50:26;95305.19;;;6.00;60.86
78835;BME280;68187;42.682;23.352;2024-02-14T11:52:54;95310.44;;;6.00;61.21
78835;BME280;68187;42.682;23.352;2024-02-14T11:55:27;95312.16;;;5.95;60.74
78835;BME280;68187;42.682;23.352;2024-02-14T11:57:55;95310.91;;;5.97;60.93
78835;BME280;68187;42.682;23.352;2024-02-14T12:00:22;95301.47;;;5.85;60.98
78835;BME280;68187;42.682;23.352;2024-02-14T12:02:50;95298.00;;;5.96;60.76
78835;BME280;68187;42.682;23.352;2024-02-14T12:05:17;95304.09;;;5.85;60.66
78835;BME280;68187;42.682;23.352;2024-02-14T12:07:46;95307.69;;;5.95;59.67
78835;BME280;68187;42.682;23.352;2024-02-14T12:10:13;95301.47;;;5.85;59.68
78835;BME280;68187;42.682;23.352;2024-02-14T12:12:40;95301.00;;;5.88;60.34
78835;BME280;68187;42.682;23.352;2024-02-14T12:15:09;95299.66;;;5.85;60.51
78835;BME280;68187;42.682;23.352;2024-02-14T12:17:36;95301.69;;;5.95;59.73
78835;BME280;68187;42.682;23.352;2024-02-14T12:20:08;95298.38;;;5.99;59.33
78835;BME280;68187;42.682;23.352;2024-02-14T12:22:37;95289.09;;;6.08;59.36
78835;BME280;68187;42.682;23.352;2024-02-14T12:25:07;95293.09;;;6.11;59.27
78835;BME280;68187;42.682;23.352;2024-02-14T12:27:36;95293.78;;;6.06;60.28
78835;BME280;68187;42.682;23.352;2024-02-14T12:30:04;95297.66;;;6.15;59.87
78835;BME280;68187;42.682;23.352;2024-02-14T12:32:31;95291.81;;;6.13;59.77
78835;BME280;68187;42.682;23.352;2024-02-14T12:34:58;95287.25;;;6.09;60.04
78835;BME280;68187;42.682;23.352;2024-02-14T12:37:26;95287.25;;;6.09;59.53
78835;BME280;68187;42.682;23.352;2024-02-14T12:39:52;95295.69;;;6.22;59.42
78835;BME280;68187;42.682;23.352;2024-02-14T12:42:22;95286.78;;;6.23;59.29
78835;BME280;68187;42.682;23.352;2024-02-14T12:44:51;95289.84;;;6.20;59.81
78835;BME280;68187;42.682;23.352;2024-02-14T12:47:19;95291.47;;;6.21;59.44
78835;BME280;68187;42.682;23.352;2024-02-14T12:49:47;95294.28;;;6.31;59.63
78835;BME280;68187;42.682;23.352;2024-02-14T12:52:14;95290.97;;;6.36;59.51
78835;BME280;68187;42.682;23.352;2024-02-14T12:54:41;95282.44;;;6.29;59.80
78835;BME280;68187;42.682;23.352;2024-02-14T12:57:09;95293.59;;;6.36;58.80
78835;BME280;68187;42.682;23.352;2024-02-14T12:59:37;95288.38;;;6.24;58.75
78835;BME280;68187;42.682;23.352;2024-02-14T13:02:04;95294.59;;;6.35;59.30